createdAt,value
2019-05-16T00:02:23.892Z,10.07
2019-05-16T00:04:54.165Z,10.90
2019-05-16T00:07:24.341Z,9.13
2019-05-16T00:09:54.751Z,8.47
2019-05-16T00:12:25.008Z,9.33
2019-05-16T00:14:55.257Z,9.73
2019-05-16T00:17:28.486Z,9.57
2019-05-16T00:19:58.897Z,10.83
2019-05-16T00:22:29.297Z,10.47
2019-05-16T00:24:59.666Z,10.47
2019-05-16T00:27:29.898Z,10.20
2019-05-16T00:30:00.112Z,9.80
2019-05-16T00:32:30.549Z,10.43
2019-05-16T00:35:00.900Z,10.37
2019-05-16T00:37:31.388Z,10.33
2019-05-16T00:40:01.903Z,10.23
2019-05-16T00:42:32.074Z,10.10
2019-05-16T00:45:02.318Z,10.27
2019-05-16T00:47:33.006Z,10.30
2019-05-16T00:50:03.254Z,12.00
2019-05-16T00:52:33.475Z,11.40
2019-05-16T00:55:03.757Z,11.83
2019-05-16T00:57:34.206Z,11.50
2019-05-16T01:00:04.811Z,10.43
2019-05-16T01:02:35.166Z,9.00
2019-05-16T01:05:08.264Z,9.10
2019-05-16T01:07:39.236Z,12.30
2019-05-16T01:10:10.727Z,12.40
2019-05-16T01:12:40.998Z,13.63
2019-05-16T01:15:11.611Z,14.93
2019-05-16T01:17:41.916Z,15.80
2019-05-16T01:20:13.362Z,17.70
2019-05-16T01:22:43.626Z,18.80
2019-05-16T01:25:14.109Z,20.83
2019-05-16T01:27:44.398Z,17.63
2019-05-16T01:30:14.927Z,16.87
2019-05-16T01:32:45.262Z,20.17
2019-05-16T01:35:15.702Z,22.27
2019-05-16T01:37:48.869Z,21.30
2019-05-16T01:40:19.636Z,23.40
2019-05-16T01:42:49.847Z,23.10
2019-05-16T01:45:20.374Z,22.33
2019-05-16T01:47:51.204Z,21.27
2019-05-16T01:50:21.438Z,20.70
2019-05-16T01:52:52.308Z,20.43
2019-05-16T01:55:22.433Z,19.83
2019-05-16T01:57:53.132Z,21.83
2019-05-16T02:00:25.822Z,20.13
2019-05-16T02:02:55.440Z,21.63
2019-05-16T02:05:27.917Z,21.00
2019-05-16T02:07:58.358Z,23.80
2019-05-16T02:10:28.911Z,22.50
2019-05-16T02:12:59.173Z,21.97
2019-05-16T02:15:29.455Z,21.90
2019-05-16T02:17:59.739Z,22.83
2019-05-16T02:20:29.978Z,20.53
2019-05-16T02:23:01.282Z,20.90
2019-05-16T02:25:31.548Z,21.33
2019-05-16T02:28:04.905Z,22.33
2019-05-16T02:30:36.681Z,22.83
2019-05-16T02:33:06.898Z,22.70
2019-05-16T02:35:40.288Z,23.37
2019-05-16T02:38:11.372Z,22.63
2019-05-16T02:40:41.719Z,24.50
2019-05-16T02:43:12.680Z,23.47
2019-05-16T02:45:43.027Z,18.33
2019-05-16T02:48:13.626Z,18.27
2019-05-16T02:50:44.126Z,21.67
2019-05-16T02:53:14.284Z,20.80
2019-05-16T02:55:47.062Z,18.30
2019-05-16T02:58:17.660Z,18.53
2019-05-16T03:00:51.220Z,19.63
2019-05-16T03:03:21.345Z,23.17
2019-05-16T03:05:52.392Z,22.07
2019-05-16T03:08:23.656Z,21.87
2019-05-16T03:10:54.824Z,22.80
2019-05-16T03:13:26.942Z,22.57
2019-05-16T03:16:00.674Z,20.70
2019-05-16T03:18:31.464Z,20.10
2019-05-16T03:21:02.689Z,19.97
2019-05-16T03:23:33.431Z,24.00
2019-05-16T03:26:04.847Z,26.97
2019-05-16T03:28:35.300Z,23.47
2019-05-16T03:31:14.147Z,23.93
2019-05-16T03:33:48.982Z,25.83
2019-05-16T03:36:24.273Z,25.50
2019-05-16T03:38:51.421Z,24.23
2019-05-16T03:41:24.171Z,26.10
2019-05-16T03:43:54.749Z,22.47
2019-05-16T03:46:30.715Z,22.10
2019-05-16T03:49:03.253Z,22.83
2019-05-16T03:51:33.613Z,22.50
2019-05-16T03:54:03.877Z,22.97
2019-05-16T03:56:40.828Z,25.10
2019-05-16T03:59:11.360Z,27.43
2019-05-16T04:01:41.920Z,25.40
2019-05-16T04:04:13.370Z,23.50
2019-05-16T04:06:44.301Z,24.27
2019-05-16T04:09:14.788Z,24.63
2019-05-16T04:11:45.514Z,24.00
2019-05-16T04:14:21.170Z,28.27
2019-05-16T04:16:51.074Z,26.47
2019-05-16T04:19:22.126Z,22.97
2019-05-16T04:21:52.511Z,22.70
2019-05-16T04:24:26.300Z,28.43
2019-05-16T04:27:00.771Z,27.23
2019-05-16T04:29:31.665Z,24.93
2019-05-16T04:32:03.108Z,27.73
2019-05-16T04:34:34.067Z,26.90
2019-05-16T04:37:04.449Z,27.10
2019-05-16T04:39:34.842Z,23.03
2019-05-16T04:42:05.174Z,24.67
2019-05-16T04:44:35.396Z,24.83
2019-05-16T04:47:05.729Z,23.90
2019-05-16T04:49:35.976Z,25.37
2019-05-16T04:52:06.077Z,26.17
2019-05-16T04:54:36.332Z,26.60
2019-05-16T04:57:06.628Z,26.83
2019-05-16T04:59:36.988Z,27.47
2019-05-16T05:02:07.343Z,29.97
2019-05-16T05:04:37.593Z,30.43
2019-05-16T05:07:10.861Z,33.53
2019-05-16T05:09:40.814Z,28.23
2019-05-16T05:12:11.714Z,25.37
2019-05-16T05:14:42.042Z,24.93
2019-05-16T05:17:12.586Z,25.10
2019-05-16T05:19:42.924Z,25.13
2019-05-16T05:22:13.259Z,24.57
2019-05-16T05:24:43.913Z,21.03
2019-05-16T05:27:16.553Z,20.80
2019-05-16T05:29:50.147Z,23.63
2019-05-16T05:32:20.355Z,22.93
2019-05-16T05:34:53.765Z,22.67
2019-05-16T05:37:26.667Z,22.90
2019-05-16T05:40:20.131Z,22.13
2019-05-16T05:43:03.495Z,22.67
2019-05-16T05:45:33.998Z,22.70
2019-05-16T05:48:06.312Z,24.40
2019-05-16T05:50:36.790Z,23.13
2019-05-16T05:53:10.230Z,20.17
2019-05-16T05:55:40.658Z,21.17
2019-05-16T05:58:10.795Z,19.63
2019-05-16T06:00:43.532Z,18.90
2019-05-16T06:03:13.883Z,20.83
2019-05-16T06:05:45.911Z,23.37
2019-05-16T06:08:16.289Z,21.87
2019-05-16T06:10:46.662Z,19.80
2019-05-16T06:13:17.158Z,18.30
2019-05-16T06:15:47.481Z,20.63
2019-05-16T06:18:19.860Z,21.43
2019-05-16T06:20:51.314Z,18.83
2019-05-16T06:23:21.493Z,17.17
2019-05-16T06:25:51.955Z,15.87
2019-05-16T06:28:22.155Z,13.10
2019-05-16T06:30:53.436Z,13.50
2019-05-16T06:33:23.741Z,16.10
2019-05-16T06:35:53.965Z,17.97
2019-05-16T06:38:24.250Z,17.20
2019-05-16T06:40:54.606Z,17.07
2019-05-16T06:43:24.939Z,15.13
2019-05-16T06:45:55.298Z,12.53
2019-05-16T06:48:25.562Z,13.77
2019-05-16T06:50:55.790Z,14.73
2019-05-16T06:53:26.084Z,12.30
2019-05-16T06:55:56.346Z,12.50
2019-05-16T06:58:26.644Z,12.73
2019-05-16T07:00:59.510Z,10.43
2019-05-16T07:03:30.669Z,11.97
2019-05-16T07:06:00.811Z,12.20
2019-05-16T07:08:31.341Z,11.93
2019-05-16T07:11:01.759Z,13.03
2019-05-16T07:13:32.006Z,14.20
2019-05-16T07:16:02.302Z,17.40
2019-05-16T07:18:32.538Z,11.57
2019-05-16T07:21:02.853Z,13.70
2019-05-16T07:23:33.171Z,12.97
2019-05-16T07:26:03.382Z,11.07
2019-05-16T07:28:33.677Z,12.80
2019-05-16T07:31:14.750Z,10.97
2019-05-16T07:33:37.184Z,10.67
2019-05-16T07:36:09.760Z,10.27
2019-05-16T07:38:40.045Z,13.53
2019-05-16T07:41:13.872Z,9.47
2019-05-16T07:43:42.407Z,9.27
2019-05-16T07:46:12.650Z,8.90
2019-05-16T07:48:42.950Z,7.37
2019-05-16T07:51:13.176Z,7.20
2019-05-16T07:53:43.606Z,8.07
2019-05-16T07:56:13.885Z,7.37
2019-05-16T07:58:44.169Z,7.40
2019-05-16T08:01:14.597Z,8.63
2019-05-16T08:03:46.784Z,8.80
2019-05-16T08:06:16.942Z,8.93
2019-05-16T08:08:47.199Z,8.53
2019-05-16T08:11:20.063Z,7.93
2019-05-16T08:13:50.711Z,9.00
2019-05-16T08:16:21.190Z,7.97
2019-05-16T08:18:51.538Z,7.83
2019-05-16T08:21:21.887Z,7.80
2019-05-16T08:23:52.189Z,8.00
2019-05-16T08:26:22.507Z,8.63
2019-05-16T08:28:52.727Z,8.60
2019-05-16T08:31:23.053Z,8.20
2019-05-16T08:33:55.164Z,8.83
2019-05-16T08:36:26.307Z,7.87
2019-05-16T08:38:56.620Z,8.30
2019-05-16T08:41:27.035Z,8.27
2019-05-16T08:44:00.924Z,8.13
2019-05-16T08:46:32.097Z,8.90
2019-05-16T08:49:01.415Z,8.80
2019-05-16T08:51:33.181Z,8.87
2019-05-16T08:54:06.399Z,8.80
2019-05-16T08:56:36.642Z,8.63
2019-05-16T08:59:06.928Z,9.77
2019-05-16T09:01:46.755Z,10.07
2019-05-16T09:06:42.441Z,9.23
2019-05-16T09:09:29.484Z,9.83
2019-05-16T09:10:19.012Z,9.50
2019-05-16T09:11:48.442Z,10.23
2019-05-16T09:14:22.682Z,9.03
2019-05-16T09:16:48.965Z,9.07
2019-05-16T09:19:19.204Z,8.23
2019-05-16T09:21:49.401Z,9.43
2019-05-16T09:24:19.692Z,9.13
2019-05-16T09:26:49.966Z,9.60
2019-05-16T09:29:20.187Z,9.40
2019-05-16T09:32:07.820Z,10.77
2019-05-16T09:34:22.358Z,10.70
2019-05-16T09:36:56.623Z,10.27
2019-05-16T09:39:27.712Z,10.73
2019-05-16T09:41:58.743Z,12.13
2019-05-16T10:02:17.774Z,10.87
2019-05-16T10:16:24.123Z,11.40
2019-05-16T10:26:04.663Z,10.93
2019-05-16T10:28:38.448Z,12.33
2019-05-16T10:31:08.624Z,11.53
2019-05-16T10:33:39.304Z,11.60
2019-05-16T10:36:10.208Z,12.37
2019-05-16T10:38:40.456Z,12.17
2019-05-16T10:41:11.626Z,11.83
2019-05-16T10:43:44.347Z,11.10
2019-05-16T10:46:17.412Z,11.63
2019-05-16T10:48:46.982Z,11.30
2019-05-16T10:51:17.319Z,12.90
2019-05-16T10:54:10.525Z,11.55
2019-05-16T10:56:24.128Z,10.73
2019-05-16T10:59:34.927Z,16.30
2019-05-16T11:01:30.950Z,12.60
2019-05-16T11:03:59.443Z,13.47
2019-05-16T11:06:30.267Z,11.60
2019-05-16T11:09:06.396Z,12.93
2019-05-16T11:11:36.777Z,11.65
2019-05-16T11:14:09.327Z,11.78
2019-05-16T11:16:40.578Z,10.50
2019-05-16T11:19:17.443Z,9.83
2019-05-16T11:21:43.853Z,9.08
2019-05-16T11:24:15.019Z,9.40
2019-05-16T11:26:47.197Z,9.93
2019-05-16T11:29:18.864Z,7.95
2019-05-16T11:31:49.692Z,5.08
2019-05-16T11:34:20.653Z,5.33
2019-05-16T11:36:51.114Z,5.87
2019-05-16T11:39:21.383Z,6.12
2019-05-16T11:41:52.515Z,8.05
2019-05-16T11:44:22.690Z,8.28
2019-05-16T11:46:53.040Z,8.63
2019-05-16T11:49:24.533Z,9.53
2019-05-16T11:51:57.732Z,8.85
2019-05-16T11:54:27.496Z,10.38
2019-05-16T11:56:58.922Z,13.58
2019-05-16T11:59:29.073Z,42.83
2019-05-16T12:01:59.119Z,10.05
2019-05-16T12:04:29.372Z,8.38
2019-05-16T12:06:59.856Z,9.78
2019-05-16T12:09:33.506Z,9.80
2019-05-16T12:12:05.113Z,8.70
2019-05-16T12:14:36.743Z,10.40
2019-05-16T12:17:09.315Z,9.25
2019-05-16T12:19:43.899Z,8.00
2019-05-16T12:22:14.025Z,7.53
2019-05-16T12:24:47.775Z,6.92
2019-05-16T12:27:18.140Z,6.97
2019-05-16T12:29:58.872Z,26.55
2019-05-16T12:32:27.965Z,6.33
2019-05-16T12:34:58.108Z,7.12
2019-05-16T12:37:28.624Z,7.65
2019-05-16T12:40:04.564Z,8.13
2019-05-16T12:42:36.485Z,7.87
2019-05-16T12:45:08.003Z,9.10
2019-05-16T12:47:39.562Z,8.00
2019-05-16T12:50:12.127Z,6.65
2019-05-16T12:52:42.377Z,8.20
2019-05-16T12:55:23.081Z,7.90
2019-05-16T12:57:58.694Z,8.90
2019-05-16T13:00:27.620Z,9.65
2019-05-16T13:02:57.947Z,9.13
2019-05-16T13:05:28.050Z,8.70
2019-05-16T13:07:58.064Z,8.83
2019-05-16T13:10:32.199Z,9.75
2019-05-16T13:13:00.057Z,8.70
2019-05-16T13:15:30.203Z,8.78
2019-05-16T13:18:00.406Z,9.70
2019-05-16T13:20:31.257Z,9.45
2019-05-16T13:23:02.869Z,9.03
2019-05-16T13:25:33.266Z,8.55
2019-05-16T13:28:03.372Z,7.33
2019-05-16T13:30:37.519Z,6.50
2019-05-16T13:33:07.415Z,7.35
2019-05-16T13:35:37.765Z,7.62
2019-05-16T13:38:08.820Z,7.83
2019-05-16T13:40:39.092Z,8.63
2019-05-16T13:43:10.384Z,8.50
2019-05-16T13:45:40.789Z,7.10
2019-05-16T13:48:11.862Z,6.87
2019-05-16T13:50:41.965Z,5.92
2019-05-16T13:53:13.091Z,5.90
2019-05-16T13:55:43.342Z,5.17
2019-05-16T13:58:18.591Z,7.05
2019-05-16T14:00:48.833Z,5.92
2019-05-16T14:03:27.802Z,5.08
2019-05-16T14:05:58.849Z,5.10
2019-05-16T14:08:30.912Z,6.25
2019-05-16T14:11:02.417Z,6.17
2019-05-16T14:13:37.425Z,5.78
2019-05-16T14:16:07.432Z,5.67
2019-05-16T14:18:38.130Z,5.55
2019-05-16T14:21:08.579Z,8.00
2019-05-16T14:23:38.754Z,4.58
2019-05-16T14:26:08.836Z,5.12
2019-05-16T14:28:39.086Z,4.70
2019-05-16T14:31:12.230Z,6.95
2019-05-16T14:33:42.435Z,5.00
2019-05-16T14:36:12.641Z,6.03
2019-05-16T14:38:46.165Z,5.08
2019-05-16T14:41:18.268Z,4.40
2019-05-16T14:43:48.613Z,3.75
2019-05-16T14:46:18.695Z,4.22
2019-05-16T14:48:50.403Z,6.65
2019-05-16T14:51:22.468Z,7.62
2019-05-16T14:53:59.465Z,8.70
2019-05-16T14:56:29.760Z,7.80
2019-05-16T14:59:00.291Z,7.83
2019-05-16T15:01:30.812Z,6.25
2019-05-16T15:04:01.974Z,5.72
2019-05-16T15:06:33.033Z,4.12
2019-05-16T15:09:07.744Z,3.87
2019-05-16T15:11:38.433Z,3.62
2019-05-16T15:14:08.794Z,4.40
2019-05-16T15:16:41.315Z,4.12
2019-05-16T15:19:12.200Z,3.92
2019-05-16T15:21:42.712Z,5.40
2019-05-16T15:24:13.041Z,4.90
2019-05-16T15:26:43.281Z,4.75
2019-05-16T15:29:13.474Z,3.87
2019-05-16T15:31:52.546Z,4.03
2019-05-16T15:34:34.708Z,3.70
2019-05-16T15:37:16.990Z,3.25
2019-05-16T15:39:54.166Z,2.37
2019-05-16T15:42:23.404Z,2.60
2019-05-16T15:44:54.016Z,2.92
2019-05-16T15:47:27.844Z,2.85
2019-05-16T15:49:59.789Z,2.67
2019-05-16T15:53:09.954Z,3.40
2019-05-16T15:55:40.471Z,2.60
2019-05-16T15:58:12.419Z,3.17
2019-05-16T16:00:54.498Z,4.25
2019-05-16T16:03:27.282Z,3.52
2019-05-16T16:05:59.120Z,4.25
2019-05-16T16:08:37.152Z,3.75
2019-05-16T16:11:07.625Z,3.42
2019-05-16T16:13:48.370Z,3.55
2019-05-16T16:16:34.528Z,3.45
2019-05-16T16:19:46.974Z,5.28
2019-05-16T16:22:18.996Z,2.52
2019-05-16T16:24:49.135Z,3.02
2019-05-16T16:27:21.029Z,3.72
2019-05-16T16:29:51.240Z,3.17
2019-05-16T16:32:22.036Z,3.85
2019-05-16T16:34:52.186Z,3.60
2019-05-16T16:37:22.677Z,2.67
2019-05-16T16:39:52.864Z,3.37
2019-05-16T16:42:23.096Z,3.75
2019-05-16T16:44:53.332Z,3.95
2019-05-16T16:47:23.486Z,3.33
2019-05-16T16:49:54.121Z,2.72
2019-05-16T16:52:27.348Z,3.27
2019-05-16T16:54:57.695Z,2.77
2019-05-16T16:57:27.844Z,2.30
2019-05-16T16:59:58.102Z,3.33
2019-05-16T17:02:29.508Z,3.23
2019-05-16T17:05:01.293Z,2.47
2019-05-16T17:07:32.436Z,2.80
2019-05-16T17:10:02.854Z,2.83
2019-05-16T17:12:34.214Z,3.27
2019-05-16T17:15:08.569Z,3.37
2019-05-16T17:17:37.694Z,3.52
2019-05-16T17:20:08.891Z,4.23
2019-05-16T17:22:39.212Z,2.73
2019-05-16T17:25:10.046Z,4.80
2019-05-16T17:27:40.241Z,3.30
2019-05-16T17:30:16.990Z,3.73
2019-05-16T17:32:48.555Z,3.87
2019-05-16T17:35:19.282Z,5.03
2019-05-16T17:37:50.201Z,4.53
2019-05-16T17:40:27.412Z,4.67
2019-05-16T17:43:00.621Z,4.00
2019-05-16T17:45:30.829Z,4.37
2019-05-16T17:48:01.170Z,3.90
2019-05-16T17:50:31.323Z,4.12
2019-05-16T17:53:02.490Z,4.33
2019-05-16T17:55:32.697Z,4.92
2019-05-16T17:58:08.465Z,4.00
2019-05-16T18:00:37.310Z,3.93
2019-05-16T18:03:07.838Z,4.23
2019-05-16T18:05:38.049Z,4.33
2019-05-16T18:08:08.382Z,5.33
2019-05-16T18:10:39.535Z,5.40
2019-05-16T18:13:10.098Z,4.37
2019-05-16T18:15:41.954Z,4.73
2019-05-16T18:18:12.401Z,5.37
2019-05-16T18:20:55.914Z,5.07
2019-05-16T18:23:16.551Z,4.63
2019-05-16T18:25:47.160Z,5.17
2019-05-16T18:28:17.653Z,5.57
2019-05-16T18:30:50.719Z,5.60
2019-05-16T18:33:27.329Z,6.33
2019-05-16T18:35:58.042Z,4.83
2019-05-16T18:38:28.586Z,5.30
2019-05-16T18:40:58.769Z,5.47
2019-05-16T18:43:28.920Z,5.10
2019-05-16T18:45:59.209Z,5.37
2019-05-16T18:48:29.410Z,5.37
2019-05-16T18:51:01.707Z,4.60
2019-05-16T18:53:39.397Z,6.67
2019-05-16T18:56:09.581Z,5.03
2019-05-16T18:58:39.997Z,4.67
2019-05-16T19:01:11.084Z,4.60
2019-05-16T19:03:43.199Z,5.40
2019-05-16T19:06:13.317Z,5.47
2019-05-16T19:08:43.561Z,6.40
2019-05-16T19:11:13.824Z,8.13
2019-05-16T19:13:44.016Z,7.20
2019-05-16T19:16:14.166Z,7.47
2019-05-16T19:18:44.411Z,8.17
2019-05-16T19:21:16.705Z,6.60
2019-05-16T19:23:49.088Z,6.77
2019-05-16T19:26:19.480Z,6.20
2019-05-16T19:28:49.676Z,5.83
2019-05-16T19:31:19.910Z,6.03
2019-05-16T19:33:50.125Z,6.43
2019-05-16T19:36:20.345Z,7.80
2019-05-16T19:38:50.480Z,10.93
2019-05-16T19:41:20.700Z,8.90
2019-05-16T19:43:50.917Z,8.83
2019-05-16T19:46:23.507Z,7.40
2019-05-16T19:48:52.980Z,7.27
2019-05-16T19:51:23.216Z,7.97
2019-05-16T19:53:53.489Z,6.93
2019-05-16T19:56:23.589Z,7.47
2019-05-16T19:58:53.781Z,7.23
2019-05-16T20:01:24.074Z,7.63
2019-05-16T20:03:56.516Z,7.00
2019-05-16T20:06:27.442Z,6.13
2019-05-16T20:08:57.853Z,6.40
2019-05-16T20:11:27.917Z,6.67
2019-05-16T20:13:58.016Z,7.10
2019-05-16T20:16:28.195Z,6.67
2019-05-16T20:18:58.409Z,7.03
2019-05-16T20:21:28.613Z,6.77
2019-05-16T20:23:58.847Z,6.53
2019-05-16T20:26:29.068Z,6.40
2019-05-16T20:28:59.618Z,6.13
2019-05-16T20:31:29.843Z,6.57
2019-05-16T20:33:59.976Z,7.43
2019-05-16T20:36:30.232Z,8.40
2019-05-16T20:39:00.615Z,8.10
2019-05-16T20:41:30.749Z,8.90
2019-05-16T20:44:01.029Z,9.60
2019-05-16T20:46:31.271Z,10.10
2019-05-16T20:49:01.477Z,13.10
2019-05-16T20:51:31.716Z,18.17
2019-05-16T20:54:01.874Z,16.97
2019-05-16T20:56:32.235Z,15.40
2019-05-16T20:59:02.529Z,13.00
2019-05-16T21:01:33.071Z,10.77
2019-05-16T21:04:03.597Z,8.13
2019-05-16T21:06:33.680Z,6.57
2019-05-16T21:09:06.612Z,6.90
2019-05-16T21:11:37.132Z,7.23
2019-05-16T21:14:07.418Z,7.93
2019-05-16T21:16:37.992Z,7.87
2019-05-16T21:19:12.406Z,7.20
2019-05-16T21:21:42.486Z,7.80
2019-05-16T21:24:12.571Z,7.83
2019-05-16T21:26:42.824Z,7.90
2019-05-16T21:29:13.044Z,8.77
2019-05-16T21:31:43.184Z,7.37
2019-05-16T21:34:13.405Z,8.33
2019-05-16T21:36:43.572Z,8.47
2019-05-16T21:39:13.726Z,10.80
2019-05-16T21:41:43.863Z,9.50
2019-05-16T21:44:14.024Z,9.50
2019-05-16T21:46:46.998Z,9.77
2019-05-16T21:49:19.590Z,10.33
2019-05-16T21:51:49.208Z,10.60
2019-05-16T21:54:19.370Z,13.30
2019-05-16T21:56:49.529Z,11.47
2019-05-16T21:59:19.769Z,11.70
2019-05-16T22:01:50.589Z,12.10
2019-05-16T22:04:20.901Z,11.27
2019-05-16T22:06:51.181Z,12.07
2019-05-16T22:09:21.332Z,11.13
2019-05-16T22:11:51.537Z,11.07
2019-05-16T22:14:27.615Z,11.73
2019-05-16T22:16:58.260Z,12.13
2019-05-16T22:19:28.477Z,11.80
2019-05-16T22:21:58.726Z,11.23
2019-05-16T22:24:28.787Z,11.33
2019-05-16T22:26:59.120Z,11.93
2019-05-16T22:29:29.389Z,11.93
2019-05-16T22:32:00.204Z,11.40
2019-05-16T22:34:30.425Z,11.73
2019-05-16T22:37:00.582Z,12.97
2019-05-16T22:39:30.784Z,13.13
2019-05-16T22:42:00.985Z,11.70
2019-05-16T22:44:31.153Z,12.37
2019-05-16T22:47:01.417Z,13.13
2019-05-16T22:49:31.654Z,13.33
2019-05-16T22:52:02.176Z,12.93
2019-05-16T22:54:32.451Z,12.83
2019-05-16T22:57:02.587Z,13.07
2019-05-16T22:59:32.735Z,13.13
2019-05-16T23:02:04.353Z,14.50
2019-05-16T23:04:36.618Z,14.13
2019-05-16T23:07:07.033Z,14.57
2019-05-16T23:09:37.410Z,13.70
2019-05-16T23:12:07.707Z,13.30
2019-05-16T23:14:37.852Z,13.67
2019-05-16T23:17:07.986Z,13.93
2019-05-16T23:19:38.192Z,13.73
2019-05-16T23:22:09.191Z,13.80
2019-05-16T23:24:39.412Z,14.60
2019-05-16T23:27:09.587Z,13.73
2019-05-16T23:29:39.763Z,14.40
2019-05-16T23:32:09.980Z,13.77
2019-05-16T23:34:40.406Z,15.10
2019-05-16T23:37:10.544Z,14.73
2019-05-16T23:39:40.767Z,15.20
2019-05-16T23:42:18.367Z,15.53
2019-05-16T23:44:48.519Z,15.23
2019-05-16T23:47:18.735Z,15.07
2019-05-16T23:49:48.970Z,14.80
2019-05-16T23:52:19.217Z,15.17
2019-05-16T23:54:51.566Z,13.47
2019-05-16T23:57:21.189Z,14.60
2019-05-16T23:59:51.405Z,14.73
